createdAt,value
2019-01-12T00:00:19.005Z,75.77
2019-01-12T00:01:19.000Z,75.77
2019-01-12T00:02:18.991Z,75.97
2019-01-12T00:03:18.975Z,75.56
2019-01-12T00:04:19.912Z,75.46
2019-01-12T00:05:19.004Z,74.63
2019-01-12T00:06:18.937Z,74.74
2019-01-12T00:07:18.925Z,74.12
2019-01-12T00:08:18.918Z,73.91
2019-01-12T00:09:18.964Z,73.61
2019-01-12T00:10:19.908Z,73.61
2019-01-12T00:11:19.010Z,74.02
2019-01-12T00:12:18.872Z,74.26
2019-01-12T00:13:18.862Z,74.77
2019-01-12T00:14:18.859Z,75.70
2019-01-12T00:15:18.844Z,75.08
2019-01-12T00:16:18.836Z,74.36
2019-01-12T00:17:18.824Z,74.57
2019-01-12T00:18:18.837Z,74.36
2019-01-12T00:19:18.802Z,74.16
2019-01-12T00:20:20.414Z,74.46
2019-01-12T00:21:18.812Z,75.32
2019-01-12T00:22:18.808Z,74.46
2019-01-12T00:23:18.776Z,75.63
2019-01-12T00:24:18.749Z,74.91
2019-01-12T00:25:18.735Z,74.46
2019-01-12T00:26:18.741Z,75.29
2019-01-12T00:27:18.714Z,75.60
2019-01-12T00:28:18.709Z,76.32
2019-01-12T00:29:18.696Z,75.70
2019-01-12T00:30:18.682Z,74.57
2019-01-12T00:31:18.887Z,74.16
2019-01-12T00:32:19.417Z,76.01
2019-01-12T00:33:18.923Z,73.95
2019-01-12T00:34:18.658Z,74.36
2019-01-12T00:35:18.627Z,73.85
2019-01-12T00:36:18.631Z,75.18
2019-01-12T00:37:18.619Z,75.18
2019-01-12T00:38:19.413Z,75.05
2019-01-12T00:39:18.596Z,74.43
2019-01-12T00:40:18.565Z,75.35
2019-01-12T00:41:18.554Z,73.91
2019-01-12T00:42:18.564Z,74.74
2019-01-12T00:43:18.536Z,74.95
2019-01-12T00:44:18.522Z,74.12
2019-01-12T00:45:18.533Z,74.43
2019-01-12T00:46:18.505Z,74.16
2019-01-12T00:47:18.498Z,74.02
2019-01-12T00:48:19.415Z,74.88
2019-01-12T00:49:18.475Z,73.91
2019-01-12T00:50:18.464Z,75.25
2019-01-12T00:51:18.537Z,74.05
2019-01-12T00:52:18.434Z,73.71
2019-01-12T00:53:18.431Z,74.43
2019-01-12T00:54:19.419Z,74.77
2019-01-12T00:55:26.552Z,75.29
2019-01-12T00:57:29.540Z,74.67
2019-01-12T00:59:39.411Z,74.67
2019-01-12T01:00:39.403Z,75.49
2019-01-12T01:01:39.398Z,74.46
2019-01-12T01:02:39.451Z,74.16
2019-01-12T01:03:40.359Z,74.05
2019-01-12T01:04:39.372Z,73.85
2019-01-12T01:05:39.383Z,73.85
2019-01-12T01:06:39.343Z,74.26
2019-01-12T01:07:39.346Z,74.50
2019-01-12T01:08:39.338Z,73.98
2019-01-12T01:09:39.325Z,75.22
2019-01-12T01:10:39.304Z,75.63
2019-01-12T01:11:39.278Z,75.32
2019-01-12T01:12:39.296Z,73.98
2019-01-12T01:13:39.280Z,73.57
2019-01-12T01:14:39.251Z,73.36
2019-01-12T01:15:39.280Z,73.47
2019-01-12T01:16:39.231Z,76.04
2019-01-12T01:17:39.287Z,75.22
2019-01-12T01:18:39.511Z,75.29
2019-01-12T01:19:39.262Z,73.85
2019-01-12T01:20:40.011Z,74.26
2019-01-12T01:21:40.007Z,73.33
2019-01-12T01:22:40.944Z,72.61
2019-01-12T01:23:40.008Z,72.09
2019-01-12T01:24:45.562Z,72.13
2019-01-12T01:25:40.685Z,71.82
2019-01-12T01:26:39.121Z,72.03
2019-01-12T01:27:39.117Z,71.92
2019-01-12T01:28:39.538Z,72.13
2019-01-12T01:29:41.001Z,73.19
2019-01-12T01:30:39.078Z,72.78
2019-01-12T01:31:39.143Z,72.78
2019-01-12T01:32:39.065Z,72.67
2019-01-12T01:33:39.061Z,72.78
2019-01-12T01:34:39.085Z,74.02
2019-01-12T01:35:39.024Z,72.47
2019-01-12T01:36:39.009Z,72.47
2019-01-12T01:37:39.023Z,72.58
2019-01-12T01:38:38.992Z,72.58
2019-01-12T01:39:38.997Z,73.02
2019-01-12T01:40:40.523Z,73.30
2019-01-12T01:41:39.950Z,73.85
2019-01-12T01:42:38.962Z,73.12
2019-01-12T01:43:38.932Z,72.99
2019-01-12T01:44:38.932Z,72.40
2019-01-12T01:45:41.519Z,72.61
2019-01-12T01:46:41.510Z,73.12
2019-01-12T01:47:38.896Z,73.95
2019-01-12T01:48:38.907Z,73.85
2019-01-12T01:49:38.878Z,73.54
2019-01-12T01:50:38.868Z,74.05
2019-01-12T01:51:40.518Z,73.74
2019-01-12T01:52:38.848Z,73.22
2019-01-12T01:53:38.912Z,73.85
2019-01-12T01:54:38.821Z,74.05
2019-01-12T01:55:38.818Z,74.57
2019-01-12T01:56:38.809Z,74.26
2019-01-12T01:57:38.788Z,73.95
2019-01-12T01:58:38.782Z,73.64
2019-01-12T01:59:38.804Z,74.15
2019-01-12T02:00:38.754Z,73.85
2019-01-12T02:01:38.749Z,74.57
2019-01-12T02:02:38.732Z,74.05
2019-01-12T02:03:38.722Z,73.54
2019-01-12T02:04:39.510Z,73.12
2019-01-12T02:05:38.731Z,73.95
2019-01-12T02:06:38.711Z,74.05
2019-01-12T02:07:38.679Z,74.26
2019-01-12T02:08:38.670Z,73.43
2019-01-12T02:09:38.664Z,73.95
2019-01-12T02:10:38.664Z,73.95
2019-01-12T02:11:38.660Z,74.26
2019-01-12T02:12:38.627Z,74.05
2019-01-12T02:13:39.517Z,74.36
2019-01-12T02:14:38.603Z,73.95
2019-01-12T02:15:38.590Z,73.95
2019-01-12T02:16:38.593Z,74.36
2019-01-12T02:17:40.510Z,74.15
2019-01-12T02:18:38.584Z,74.50
2019-01-12T02:19:38.552Z,73.33
2019-01-12T02:20:38.544Z,73.68
2019-01-12T02:21:38.531Z,73.54
2019-01-12T02:22:38.538Z,74.05
2019-01-12T02:23:38.536Z,74.05
2019-01-12T02:24:38.513Z,74.67
2019-01-12T02:25:38.489Z,74.77
2019-01-12T02:26:38.482Z,74.88
2019-01-12T02:27:38.467Z,74.60
2019-01-12T02:28:38.530Z,74.36
2019-01-12T02:29:39.012Z,75.74
2019-01-12T02:30:38.435Z,74.81
2019-01-12T02:31:38.432Z,75.53
2019-01-12T02:32:38.415Z,74.81
2019-01-12T02:33:38.423Z,74.29
2019-01-12T02:34:38.409Z,74.50
2019-01-12T02:35:38.486Z,75.43
2019-01-12T02:36:38.374Z,74.77
2019-01-12T02:37:38.362Z,75.01
2019-01-12T02:38:38.352Z,75.95
2019-01-12T02:39:39.020Z,74.71
2019-01-12T02:40:38.348Z,75.49
2019-01-12T02:41:38.325Z,75.12
2019-01-12T02:42:38.305Z,75.53
2019-01-12T02:43:38.294Z,76.04
2019-01-12T02:44:38.286Z,77.04
2019-01-12T02:45:38.274Z,76.12
2019-01-12T02:46:38.287Z,75.91
2019-01-12T02:47:38.249Z,76.84
2019-01-12T02:48:38.246Z,76.15
2019-01-12T02:49:38.233Z,74.77
2019-01-12T02:50:40.019Z,74.88
2019-01-12T02:51:38.213Z,74.19
2019-01-12T02:52:38.219Z,74.08
2019-01-12T02:53:38.191Z,73.88
2019-01-12T02:54:38.183Z,75.32
2019-01-12T02:55:38.172Z,75.63
2019-01-12T02:56:38.157Z,75.29
2019-01-12T02:57:38.158Z,74.57
2019-01-12T02:58:38.151Z,74.57
2019-01-12T02:59:38.121Z,74.15
2019-01-12T03:00:38.115Z,75.01
2019-01-12T03:01:38.101Z,73.98
2019-01-12T03:02:38.103Z,74.50
2019-01-12T03:03:38.104Z,74.19
2019-01-12T03:04:38.074Z,75.43
2019-01-12T03:05:38.083Z,74.81
2019-01-12T03:06:38.050Z,90.25
2019-01-12T03:07:38.047Z,91.19
2019-01-12T03:08:38.028Z,88.99
2019-01-12T03:09:38.032Z,83.14
2019-01-12T03:10:38.012Z,76.62
2019-01-12T03:11:38.004Z,77.41
2019-01-12T03:12:37.985Z,74.70
2019-01-12T03:13:37.976Z,70.79
2019-01-12T03:14:37.962Z,69.67
2019-01-12T03:15:37.966Z,68.13
2019-01-12T03:16:37.955Z,69.18
2019-01-12T03:17:37.943Z,68.88
2019-01-12T03:18:37.947Z,67.98
2019-01-12T03:19:37.914Z,68.84
2019-01-12T03:20:37.913Z,68.63
2019-01-12T03:21:37.892Z,69.90
2019-01-12T03:22:37.873Z,70.10
2019-01-12T03:23:37.894Z,70.21
2019-01-12T03:24:37.860Z,70.96
2019-01-12T03:25:37.856Z,71.37
2019-01-12T03:26:37.835Z,71.17
2019-01-12T03:27:37.819Z,71.41
2019-01-12T03:28:37.829Z,71.92
2019-01-12T03:29:37.800Z,72.03
2019-01-12T03:30:37.799Z,73.47
2019-01-12T03:31:37.782Z,73.50
2019-01-12T03:32:37.781Z,71.95
2019-01-12T03:33:37.756Z,72.67
2019-01-12T03:34:37.764Z,71.99
2019-01-12T03:35:37.737Z,73.12
2019-01-12T03:36:37.726Z,74.15
2019-01-12T03:37:37.727Z,74.43
2019-01-12T03:38:37.717Z,74.02
2019-01-12T03:39:37.713Z,73.85
2019-01-12T03:40:37.693Z,74.12
2019-01-12T03:41:37.680Z,73.71
2019-01-12T03:42:37.660Z,74.15
2019-01-12T03:43:37.654Z,75.05
2019-01-12T03:44:37.673Z,74.57
2019-01-12T03:45:37.655Z,74.15
2019-01-12T03:46:37.625Z,73.33
2019-01-12T03:47:37.610Z,73.85
2019-01-12T03:48:37.599Z,73.95
2019-01-12T03:49:37.595Z,74.77
2019-01-12T03:50:37.579Z,75.53
2019-01-12T03:51:37.581Z,74.57
2019-01-12T03:52:37.561Z,74.77
2019-01-12T03:53:37.574Z,75.29
2019-01-12T03:54:37.541Z,76.67
2019-01-12T03:55:37.518Z,75.49
2019-01-12T03:56:37.513Z,75.60
2019-01-12T03:57:37.526Z,76.35
2019-01-12T03:58:37.489Z,76.04
2019-01-12T03:59:37.484Z,75.91
2019-01-12T04:00:37.465Z,75.81
2019-01-12T04:01:37.454Z,75.70
2019-01-12T04:02:37.468Z,75.60
2019-01-12T04:03:37.436Z,75.84
2019-01-12T04:04:38.042Z,76.12
2019-01-12T04:05:37.421Z,75.49
2019-01-12T04:06:37.407Z,75.49
2019-01-12T04:07:37.400Z,75.91
2019-01-12T04:08:37.404Z,76.01
2019-01-12T04:09:37.379Z,76.01
2019-01-12T04:10:37.373Z,76.21
2019-01-12T04:11:37.358Z,76.42
2019-01-12T04:12:37.346Z,75.70
2019-01-12T04:13:37.351Z,75.81
2019-01-12T04:14:37.318Z,76.42
2019-01-12T04:15:37.309Z,75.49
2019-01-12T04:16:37.311Z,75.70
2019-01-12T04:17:37.307Z,75.70
2019-01-12T04:18:37.278Z,76.15
2019-01-12T04:19:37.283Z,76.87
2019-01-12T04:20:37.255Z,76.84
2019-01-12T04:21:37.248Z,75.81
2019-01-12T04:22:37.240Z,75.81
2019-01-12T04:23:37.225Z,76.12
2019-01-12T04:24:37.219Z,75.49
2019-01-12T04:25:37.219Z,75.49
2019-01-12T04:26:37.197Z,76.01
2019-01-12T04:27:37.189Z,76.15
2019-01-12T04:28:37.188Z,75.84
2019-01-12T04:29:37.166Z,75.63
2019-01-12T04:30:37.150Z,76.01
2019-01-12T04:31:37.160Z,75.63
2019-01-12T04:32:37.126Z,75.63
2019-01-12T04:33:37.134Z,76.15
2019-01-12T04:34:37.110Z,76.04
2019-01-12T04:35:37.109Z,76.46
2019-01-12T04:36:37.092Z,76.35
2019-01-12T04:37:37.074Z,76.15
2019-01-12T04:38:37.067Z,75.43
2019-01-12T04:39:38.540Z,75.84
2019-01-12T04:40:37.049Z,75.84
2019-01-12T04:41:37.030Z,76.56
2019-01-12T04:42:37.023Z,77.70
2019-01-12T04:43:37.011Z,76.87
2019-01-12T04:44:37.004Z,77.59
2019-01-12T04:45:37.005Z,76.94
2019-01-12T04:46:36.986Z,77.66
2019-01-12T04:47:36.971Z,77.04
2019-01-12T04:48:36.957Z,76.42
2019-01-12T04:49:36.948Z,75.29
2019-01-12T04:50:36.939Z,75.91
2019-01-12T04:51:36.954Z,75.81
2019-01-12T04:52:36.918Z,75.91
2019-01-12T04:53:36.935Z,75.39
2019-01-12T04:54:36.898Z,76.12
2019-01-12T04:55:41.229Z,75.49
2019-01-12T04:56:36.874Z,74.67
2019-01-12T04:57:36.883Z,74.05
2019-01-12T04:58:36.858Z,75.60
2019-01-12T04:59:36.863Z,74.60
2019-01-12T05:00:36.839Z,75.60
2019-01-12T05:01:36.816Z,75.29
2019-01-12T05:02:36.826Z,75.29
2019-01-12T05:03:38.526Z,74.60
2019-01-12T05:04:36.785Z,75.29
2019-01-12T05:05:36.773Z,75.32
2019-01-12T05:06:36.766Z,75.74
2019-01-12T05:07:36.764Z,75.39
2019-01-12T05:08:36.761Z,74.08
2019-01-12T05:09:36.733Z,74.88
2019-01-12T05:10:43.971Z,74.50
2019-01-12T05:11:44.451Z,74.60
2019-01-12T05:12:36.702Z,74.77
2019-01-12T05:13:44.310Z,75.01
2019-01-12T05:14:44.885Z,74.29
2019-01-12T05:15:36.674Z,75.32
2019-01-12T05:16:36.691Z,73.98
2019-01-12T05:17:36.655Z,74.29
2019-01-12T05:18:36.643Z,74.40
2019-01-12T05:19:36.628Z,73.98
2019-01-12T05:20:36.621Z,74.91
2019-01-12T05:21:36.617Z,74.50
2019-01-12T05:22:36.618Z,74.40
2019-01-12T05:23:37.582Z,75.12
2019-01-12T05:24:36.577Z,74.60
2019-01-12T05:25:36.576Z,75.32
2019-01-12T05:26:36.558Z,74.40
2019-01-12T05:27:36.552Z,75.01
2019-01-12T05:28:36.558Z,74.29
2019-01-12T05:29:38.183Z,74.71
2019-01-12T05:30:36.507Z,74.50
2019-01-12T05:31:36.504Z,73.98
2019-01-12T05:32:36.488Z,75.12
2019-01-12T05:33:36.482Z,73.88
2019-01-12T05:34:36.480Z,73.88
2019-01-12T05:35:36.453Z,74.08
2019-01-12T05:36:36.454Z,73.77
2019-01-12T05:37:36.443Z,73.57
2019-01-12T05:38:36.467Z,74.29
2019-01-12T05:39:36.408Z,73.47
2019-01-12T05:40:36.401Z,74.08
2019-01-12T05:41:36.390Z,74.19
2019-01-12T05:42:36.377Z,73.64
2019-01-12T05:43:36.366Z,73.54
2019-01-12T05:44:36.391Z,72.64
2019-01-12T05:45:36.346Z,73.12
2019-01-12T05:46:36.331Z,73.88
2019-01-12T05:47:36.326Z,73.02
2019-01-12T05:48:36.314Z,73.26
2019-01-12T05:49:36.309Z,72.13
2019-01-12T05:50:36.311Z,72.64
2019-01-12T05:51:36.282Z,72.85
2019-01-12T05:52:37.187Z,72.19
2019-01-12T05:53:36.266Z,71.51
2019-01-12T05:54:38.185Z,70.96
2019-01-12T05:55:36.242Z,71.81
2019-01-12T05:56:36.248Z,71.30
2019-01-12T05:57:36.219Z,71.16
2019-01-12T05:58:36.201Z,71.16
2019-01-12T05:59:36.199Z,71.68
2019-01-12T06:00:36.186Z,70.75
2019-01-12T06:01:36.180Z,70.89
2019-01-12T06:02:36.187Z,70.44
2019-01-12T06:03:36.156Z,70.68
2019-01-12T06:04:36.147Z,71.51
2019-01-12T06:05:36.128Z,70.57
2019-01-12T06:06:36.122Z,70.03
2019-01-12T06:07:36.126Z,70.86
2019-01-12T06:08:36.115Z,70.37
2019-01-12T06:09:36.089Z,70.44
2019-01-12T06:10:36.081Z,70.78
2019-01-12T06:11:36.066Z,70.34
2019-01-12T06:12:36.082Z,70.86
2019-01-12T06:13:36.050Z,71.30
2019-01-12T06:14:36.037Z,70.89
2019-01-12T06:15:36.021Z,70.17
2019-01-12T06:16:36.015Z,71.09
2019-01-12T06:17:36.014Z,71.09
2019-01-12T06:18:35.999Z,70.86
2019-01-12T06:19:36.000Z,71.37
2019-01-12T06:20:35.968Z,70.78
2019-01-12T06:21:35.955Z,71.09
2019-01-12T06:22:35.949Z,71.47
2019-01-12T06:23:36.740Z,71.61
2019-01-12T06:24:35.926Z,70.99
2019-01-12T06:25:35.919Z,71.41
2019-01-12T06:26:35.905Z,70.68
2019-01-12T06:27:35.893Z,70.44
2019-01-12T06:28:35.882Z,72.02
2019-01-12T06:29:35.888Z,73.05
2019-01-12T06:30:36.880Z,72.19
2019-01-12T06:31:39.785Z,71.68
2019-01-12T06:32:36.917Z,71.06
2019-01-12T06:33:38.703Z,71.68
2019-01-12T06:34:51.378Z,70.54
2019-01-12T06:35:47.003Z,70.23
2019-01-12T06:36:37.702Z,71.47
2019-01-12T06:37:38.723Z,71.06
2019-01-12T06:38:46.855Z,71.99
2019-01-12T06:39:36.212Z,70.75
2019-01-12T06:40:35.783Z,71.37
2019-01-12T06:41:35.756Z,71.16
2019-01-12T06:42:35.731Z,69.82
2019-01-12T06:43:35.736Z,69.69
2019-01-12T06:44:35.717Z,69.72
2019-01-12T06:45:35.722Z,69.41
2019-01-12T06:46:35.699Z,69.72
2019-01-12T06:47:35.683Z,69.93
2019-01-12T06:48:35.670Z,70.34
2019-01-12T06:49:35.669Z,69.62
2019-01-12T06:50:35.647Z,69.20
2019-01-12T06:51:35.724Z,69.59
2019-01-12T06:52:35.631Z,71.16
2019-01-12T06:53:35.622Z,70.03
2019-01-12T06:54:35.603Z,69.72
2019-01-12T06:55:35.590Z,69.17
2019-01-12T06:56:35.592Z,69.79
2019-01-12T06:57:35.596Z,70.31
2019-01-12T06:58:35.579Z,69.20
2019-01-12T06:59:35.564Z,69.72
2019-01-12T07:00:36.191Z,70.23
2019-01-12T07:01:35.531Z,70.23
2019-01-12T07:02:35.542Z,70.13
2019-01-12T07:03:35.517Z,69.27
2019-01-12T07:04:35.500Z,69.93
2019-01-12T07:05:35.498Z,69.72
2019-01-12T07:06:35.480Z,69.93
2019-01-12T07:07:35.471Z,69.79
2019-01-12T07:08:35.473Z,70.23
2019-01-12T07:09:35.446Z,70.03
2019-01-12T07:10:35.431Z,70.03
2019-01-12T07:11:35.994Z,70.75
2019-01-12T07:12:35.411Z,70.34
2019-01-12T07:13:35.406Z,70.65
2019-01-12T07:14:35.437Z,69.93
2019-01-12T07:15:35.382Z,69.93
2019-01-12T07:16:36.397Z,69.82
2019-01-12T07:17:35.377Z,70.34
2019-01-12T07:18:35.398Z,70.54
2019-01-12T07:19:35.342Z,70.44
2019-01-12T07:20:35.330Z,69.51
2019-01-12T07:21:35.319Z,71.16
2019-01-12T07:22:35.311Z,69.93
2019-01-12T07:23:35.300Z,69.93
2019-01-12T07:24:36.198Z,70.54
2019-01-12T07:25:35.282Z,71.37
2019-01-12T07:26:35.264Z,70.51
2019-01-12T07:27:35.259Z,70.34
2019-01-12T07:28:35.247Z,70.72
2019-01-12T07:29:35.253Z,71.47
2019-01-12T07:30:36.222Z,70.62
2019-01-12T07:31:35.215Z,70.20
2019-01-12T07:32:36.227Z,70.86
2019-01-12T07:33:35.714Z,71.13
2019-01-12T07:34:35.182Z,71.13
2019-01-12T07:35:35.185Z,71.37
2019-01-12T07:36:35.182Z,70.72
2019-01-12T07:37:35.155Z,71.37
2019-01-12T07:38:35.137Z,71.99
2019-01-12T07:39:35.128Z,72.47
2019-01-12T07:40:35.129Z,71.89
2019-01-12T07:41:35.096Z,72.30
2019-01-12T07:42:35.089Z,72.81
2019-01-12T07:43:35.087Z,73.02
2019-01-12T07:44:35.091Z,73.95
2019-01-12T07:45:35.064Z,74.36
2019-01-12T07:46:35.054Z,75.05
2019-01-12T07:47:36.396Z,76.01
2019-01-12T07:48:35.046Z,74.88
2019-01-12T07:49:35.020Z,74.77
2019-01-12T07:50:35.026Z,75.70
2019-01-12T07:51:35.037Z,75.91
2019-01-12T07:52:34.990Z,75.70
2019-01-12T07:53:34.998Z,76.01
2019-01-12T07:54:34.975Z,76.87
2019-01-12T07:55:34.955Z,76.77
2019-01-12T07:56:34.948Z,76.94
2019-01-12T07:57:34.945Z,77.56
2019-01-12T07:58:34.928Z,77.25
2019-01-12T07:59:34.988Z,78.49
2019-01-12T08:00:34.903Z,78.21
2019-01-12T08:01:34.888Z,77.35
2019-01-12T08:02:34.883Z,77.35
2019-01-12T08:03:34.890Z,77.59
2019-01-12T08:04:34.866Z,77.18
2019-01-12T08:05:34.872Z,77.39
2019-01-12T08:06:34.838Z,77.56
2019-01-12T08:07:36.741Z,78.08
2019-01-12T08:08:34.809Z,77.25
2019-01-12T08:09:34.801Z,77.25
2019-01-12T08:10:34.786Z,77.15
2019-01-12T08:11:34.793Z,77.70
2019-01-12T08:12:34.777Z,77.56
2019-01-12T08:13:34.765Z,77.45
2019-01-12T08:14:34.797Z,77.56
2019-01-12T08:15:34.735Z,77.25
2019-01-12T08:16:34.725Z,77.15
2019-01-12T08:17:34.707Z,77.15
2019-01-12T08:18:34.704Z,77.25
2019-01-12T08:19:34.696Z,78.21
2019-01-12T08:20:34.701Z,77.87
2019-01-12T08:21:34.667Z,77.25
2019-01-12T08:22:34.660Z,77.35
2019-01-12T08:23:35.659Z,77.66
2019-01-12T08:24:34.652Z,77.04
2019-01-12T08:25:34.631Z,77.56
2019-01-12T08:26:34.644Z,77.25
2019-01-12T08:27:34.604Z,78.18
2019-01-12T08:28:34.602Z,77.35
2019-01-12T08:29:34.584Z,77.18
2019-01-12T08:30:34.586Z,78.11
2019-01-12T08:31:34.587Z,78.69
2019-01-12T08:32:34.550Z,78.73
2019-01-12T08:33:34.540Z,78.83
2019-01-12T08:34:34.535Z,79.00
2019-01-12T08:35:34.519Z,78.59
2019-01-12T08:36:34.648Z,78.80
2019-01-12T08:37:34.522Z,78.90
2019-01-12T08:38:34.491Z,78.80
2019-01-12T08:39:34.480Z,80.14
2019-01-12T08:40:34.466Z,79.41
2019-01-12T08:41:34.466Z,78.59
2019-01-12T08:42:34.465Z,78.59
2019-01-12T08:43:34.442Z,78.59
2019-01-12T08:44:34.430Z,78.38
2019-01-12T08:45:34.416Z,78.59
2019-01-12T08:46:34.417Z,78.28
2019-01-12T08:47:34.411Z,78.38
2019-01-12T08:48:34.398Z,77.94
2019-01-12T08:49:34.362Z,77.87
2019-01-12T08:50:34.358Z,78.55
2019-01-12T08:51:34.355Z,77.94
2019-01-12T08:52:34.359Z,78.04
2019-01-12T08:53:34.353Z,79.07
2019-01-12T08:54:34.319Z,78.80
2019-01-12T08:55:34.314Z,78.86
2019-01-12T08:56:38.176Z,78.55
2019-01-12T08:57:34.292Z,78.97
2019-01-12T08:58:34.284Z,79.69
2019-01-12T08:59:34.283Z,79.79
2019-01-12T09:00:34.267Z,80.86
2019-01-12T09:01:34.247Z,81.03
2019-01-12T09:02:34.237Z,81.17
2019-01-12T09:03:35.214Z,80.44
2019-01-12T09:04:34.217Z,81.34
2019-01-12T09:05:34.214Z,81.23
2019-01-12T09:06:35.173Z,82.26
2019-01-12T09:07:34.183Z,81.96
2019-01-12T09:08:34.166Z,82.26
2019-01-12T09:09:34.158Z,82.26
2019-01-12T09:10:35.143Z,82.30
2019-01-12T09:11:34.150Z,82.57
2019-01-12T09:12:34.144Z,82.89
2019-01-12T09:13:34.637Z,82.37
2019-01-12T09:14:34.103Z,82.98
2019-01-12T09:15:34.090Z,83.29
2019-01-12T09:16:34.168Z,83.40
2019-01-12T09:17:34.075Z,83.09
2019-01-12T09:18:34.715Z,83.40
2019-01-12T09:19:36.699Z,82.89
2019-01-12T09:20:34.038Z,83.50
2019-01-12T09:21:34.031Z,83.44
2019-01-12T09:22:34.024Z,83.71
2019-01-12T09:23:34.026Z,83.29
2019-01-12T09:24:41.596Z,83.50
2019-01-12T09:25:42.900Z,83.95
2019-01-12T09:26:44.956Z,84.22
2019-01-12T09:27:33.966Z,84.12
2019-01-12T09:28:42.510Z,83.40
2019-01-12T09:29:43.951Z,83.40
2019-01-12T09:30:33.936Z,83.81
2019-01-12T09:31:33.934Z,83.71
2019-01-12T09:32:33.917Z,83.19
2019-01-12T09:33:33.897Z,83.50
2019-01-12T09:34:33.977Z,83.47
2019-01-12T09:35:33.876Z,83.47
2019-01-12T09:36:34.861Z,83.36
2019-01-12T09:37:33.855Z,83.71
2019-01-12T09:38:34.400Z,83.81
2019-01-12T09:39:33.841Z,83.36
2019-01-12T09:40:33.849Z,83.36
2019-01-12T09:41:33.822Z,83.67
2019-01-12T09:42:33.801Z,83.36
2019-01-12T09:43:33.793Z,83.47
2019-01-12T09:44:33.799Z,83.19
2019-01-12T09:45:33.781Z,83.26
2019-01-12T09:46:34.755Z,83.47
2019-01-12T09:47:36.387Z,83.67
2019-01-12T09:48:33.748Z,83.36
2019-01-12T09:49:37.400Z,82.84
2019-01-12T09:50:35.411Z,83.47
2019-01-12T09:51:34.714Z,83.67
2019-01-12T09:52:33.740Z,83.56
2019-01-12T09:53:33.685Z,83.47
2019-01-12T09:54:33.677Z,83.77
2019-01-12T09:55:33.683Z,83.56
2019-01-12T09:56:33.808Z,83.87
2019-01-12T09:57:36.403Z,84.39
2019-01-12T09:58:33.629Z,83.98
2019-01-12T09:59:33.620Z,83.53
2019-01-12T10:00:33.633Z,83.63
2019-01-12T10:01:33.692Z,83.63
2019-01-12T10:02:33.588Z,83.12
2019-01-12T10:03:33.580Z,83.12
2019-01-12T10:04:35.357Z,83.53
2019-01-12T10:05:33.550Z,83.73
2019-01-12T10:06:33.567Z,83.70
2019-01-12T10:07:33.539Z,83.22
2019-01-12T10:08:33.519Z,83.22
2019-01-12T10:09:33.520Z,83.07
2019-01-12T10:10:33.504Z,83.18
2019-01-12T10:11:33.497Z,83.28
2019-01-12T10:12:34.457Z,82.77
2019-01-12T10:13:33.468Z,82.50
2019-01-12T10:14:33.474Z,82.46
2019-01-12T10:15:33.445Z,82.77
2019-01-12T10:16:33.445Z,82.35
2019-01-12T10:17:34.935Z,82.05
2019-01-12T10:18:35.418Z,82.67
2019-01-12T10:19:39.380Z,82.35
2019-01-12T10:20:33.393Z,82.87
2019-01-12T10:21:33.377Z,82.50
2019-01-12T10:22:33.387Z,82.56
2019-01-12T10:23:33.381Z,82.35
2019-01-12T10:24:33.353Z,82.56
2019-01-12T10:25:33.873Z,82.35
2019-01-12T10:26:34.896Z,82.15
2019-01-12T10:27:33.336Z,81.84
2019-01-12T10:28:34.312Z,82.15
2019-01-12T10:29:33.297Z,81.43
2019-01-12T10:30:33.287Z,81.43
2019-01-12T10:31:33.306Z,81.95
2019-01-12T10:32:33.292Z,82.21
2019-01-12T10:33:33.258Z,81.63
2019-01-12T10:34:33.250Z,82.15
2019-01-12T10:35:33.903Z,81.53
2019-01-12T10:36:33.227Z,81.39
2019-01-12T10:37:33.224Z,81.74
2019-01-12T10:38:33.417Z,81.84
2019-01-12T10:39:33.188Z,81.29
2019-01-12T10:40:33.179Z,80.98
2019-01-12T10:41:33.183Z,81.95
2019-01-12T10:42:33.912Z,82.25
2019-01-12T10:43:33.150Z,81.74
2019-01-12T10:44:33.157Z,81.95
2019-01-12T10:45:33.920Z,81.84
2019-01-12T10:46:33.120Z,81.74
2019-01-12T10:47:33.901Z,82.35
2019-01-12T10:48:33.444Z,81.84
2019-01-12T10:49:33.085Z,82.01
2019-01-12T10:50:33.089Z,82.32
2019-01-12T10:51:33.074Z,81.70
2019-01-12T10:52:33.063Z,81.95
2019-01-12T10:53:33.043Z,81.43
2019-01-12T10:54:33.047Z,81.02
2019-01-12T10:55:33.037Z,81.23
2019-01-12T10:56:33.009Z,81.33
2019-01-12T10:57:32.999Z,82.25
2019-01-12T10:58:35.913Z,81.95
2019-01-12T10:59:32.972Z,81.74
2019-01-12T11:00:32.973Z,82.67
2019-01-12T11:01:32.989Z,81.95
2019-01-12T11:02:32.950Z,82.25
2019-01-12T11:03:32.939Z,82.15
2019-01-12T11:04:32.934Z,81.70
2019-01-12T11:05:32.920Z,81.19
2019-01-12T11:06:32.925Z,81.25
2019-01-12T11:07:32.895Z,80.63
2019-01-12T11:08:32.887Z,81.11
2019-01-12T11:09:32.871Z,80.39
2019-01-12T11:10:32.863Z,79.77
2019-01-12T11:11:32.854Z,78.64
2019-01-12T11:12:32.859Z,78.44
2019-01-12T11:13:32.827Z,78.54
2019-01-12T11:14:32.815Z,78.54
2019-01-12T11:15:32.810Z,78.33
2019-01-12T11:16:32.816Z,78.68
2019-01-12T11:17:32.819Z,79.40
2019-01-12T11:18:32.805Z,78.78
2019-01-12T11:19:32.781Z,80.12
2019-01-12T11:20:32.761Z,80.43
2019-01-12T11:21:34.406Z,80.12
2019-01-12T11:22:32.737Z,81.15
2019-01-12T11:23:32.748Z,79.81
2019-01-12T11:24:33.384Z,80.43
2019-01-12T11:25:32.703Z,80.33
2019-01-12T11:26:32.688Z,79.91
2019-01-12T11:27:33.415Z,80.39
2019-01-12T11:28:32.683Z,79.77
2019-01-12T11:29:32.676Z,79.98
2019-01-12T11:30:32.667Z,78.75
2019-01-12T11:31:32.637Z,78.54
2019-01-12T11:32:32.637Z,79.30
2019-01-12T11:33:32.617Z,79.57
2019-01-12T11:34:32.621Z,78.75
2019-01-12T11:35:32.612Z,78.68
2019-01-12T11:36:32.581Z,78.58
2019-01-12T11:37:32.569Z,79.19
2019-01-12T11:38:32.565Z,79.91
2019-01-12T11:39:32.554Z,80.22
2019-01-12T11:40:32.564Z,79.81
2019-01-12T11:41:32.533Z,79.19
2019-01-12T11:42:32.519Z,79.50
2019-01-12T11:43:32.531Z,80.63
2019-01-12T11:44:33.421Z,79.61
2019-01-12T11:45:32.479Z,81.05
2019-01-12T11:46:32.491Z,79.50
2019-01-12T11:47:32.464Z,79.98
2019-01-12T11:48:32.457Z,80.19
2019-01-12T11:49:32.442Z,79.98
2019-01-12T11:50:32.459Z,79.36
2019-01-12T11:51:32.420Z,78.54
2019-01-12T11:52:32.428Z,78.54
2019-01-12T11:53:32.395Z,78.71
2019-01-12T11:54:32.386Z,78.64
2019-01-12T11:55:32.380Z,78.64
2019-01-12T11:56:32.370Z,79.22
2019-01-12T11:57:32.360Z,79.53
2019-01-12T11:58:32.363Z,77.31
2019-01-12T11:59:32.329Z,77.82
2019-01-12T12:00:32.325Z,77.27
2019-01-12T12:01:32.322Z,77.82
2019-01-12T12:02:37.707Z,77.58
2019-01-12T12:03:33.326Z,76.79
2019-01-12T12:04:33.270Z,77.31
2019-01-12T12:05:34.913Z,77.89
2019-01-12T12:06:32.272Z,77.17
2019-01-12T12:07:32.924Z,77.72
2019-01-12T12:08:32.237Z,77.17
2019-01-12T12:09:32.241Z,77.78
2019-01-12T12:10:32.234Z,77.48
2019-01-12T12:11:32.210Z,77.17
2019-01-12T12:12:32.204Z,76.86
2019-01-12T12:13:32.200Z,76.97
2019-01-12T12:14:32.172Z,76.04
2019-01-12T12:15:32.922Z,76.55
2019-01-12T12:16:32.150Z,75.52
2019-01-12T12:17:32.144Z,77.06
2019-01-12T12:18:32.134Z,76.65
2019-01-12T12:19:33.916Z,75.42
2019-01-12T12:20:32.143Z,75.73
2019-01-12T12:21:32.117Z,74.70
2019-01-12T12:22:32.089Z,76.76
2019-01-12T12:23:32.090Z,76.86
2019-01-12T12:24:32.069Z,75.63
2019-01-12T12:25:32.062Z,75.93
2019-01-12T12:26:32.063Z,75.52
2019-01-12T12:27:32.055Z,75.52
2019-01-12T12:28:32.022Z,75.73
2019-01-12T12:29:32.021Z,74.60
2019-01-12T12:30:32.910Z,75.42
2019-01-12T12:31:32.943Z,75.76
2019-01-12T12:32:31.996Z,75.52
2019-01-12T12:33:31.968Z,75.01
2019-01-12T12:34:31.960Z,74.63
2019-01-12T12:35:37.727Z,75.87
2019-01-12T12:36:32.949Z,75.67
2019-01-12T12:37:31.922Z,76.69
2019-01-12T12:38:31.913Z,76.79
2019-01-12T12:39:31.910Z,75.67
2019-01-12T12:40:31.901Z,75.46
2019-01-12T12:41:31.883Z,75.25
2019-01-12T12:42:32.419Z,75.42
2019-01-12T12:43:31.997Z,75.56
2019-01-12T12:44:31.863Z,75.35
2019-01-12T12:45:36.443Z,75.76
2019-01-12T12:46:31.833Z,74.80
2019-01-12T12:47:31.829Z,75.52
2019-01-12T12:48:31.823Z,74.63
2019-01-12T12:49:32.792Z,73.91
2019-01-12T12:50:31.787Z,73.68
2019-01-12T12:51:31.777Z,74.22
2019-01-12T12:52:31.785Z,74.02
2019-01-12T12:53:31.813Z,73.81
2019-01-12T12:54:31.745Z,73.27